createdAt,value
2022-08-24T00:01:15.415Z,93712.66
2022-08-24T00:06:25.193Z,93705.13
2022-08-24T00:11:32.214Z,93710.89
2022-08-24T00:16:39.172Z,93712.91
2022-08-24T00:21:46.538Z,93700.32
2022-08-24T00:26:54.560Z,93706.70
2022-08-24T00:32:01.926Z,93704.41
2022-08-24T00:37:08.687Z,93708.41
2022-08-24T00:42:16.285Z,93711.89
2022-08-24T00:47:27.393Z,93711.38
2022-08-24T00:52:38.299Z,93716.62
2022-08-24T00:57:48.865Z,93714.55
2022-08-24T01:03:01.350Z,93720.98
2022-08-24T01:08:12.305Z,93721.77
2022-08-24T01:13:19.404Z,93722.45
2022-08-24T01:18:45.181Z,93722.81
2022-08-24T01:24:00.645Z,93719.64
2022-08-24T01:29:28.937Z,93716.62
2022-08-24T01:34:38.070Z,93716.31
2022-08-24T01:39:50.818Z,93721.41
2022-08-24T01:44:57.720Z,93727.84
2022-08-24T01:50:05.333Z,93714.23
2022-08-24T01:55:19.079Z,93716.50
2022-08-24T02:00:25.394Z,93706.89
2022-08-24T02:05:32.329Z,93710.28
2022-08-24T02:10:39.083Z,93709.05
2022-08-24T02:15:45.902Z,93697.97
2022-08-24T02:20:54.213Z,93701.19
2022-08-24T02:26:01.241Z,93700.22
2022-08-24T02:31:11.665Z,93701.23
2022-08-24T02:36:26.281Z,93698.63
2022-08-24T02:41:27.145Z,93697.92
2022-08-24T02:46:34.317Z,93702.50
2022-08-24T02:51:44.854Z,93701.08
2022-08-24T02:56:51.928Z,93704.33
2022-08-24T03:01:58.708Z,93707.50
2022-08-24T03:07:05.889Z,93709.28
2022-08-24T03:12:13.037Z,93709.65
2022-08-24T03:17:20.246Z,93712.52
2022-08-24T03:22:27.239Z,93716.42
2022-08-24T03:27:34.168Z,93718.19
2022-08-24T03:32:41.763Z,93713.03
2022-08-24T03:37:48.913Z,93725.23
2022-08-24T03:42:56.906Z,93721.02
2022-08-24T03:48:03.750Z,93728.82
2022-08-24T03:53:10.551Z,93732.27
2022-08-24T03:58:17.897Z,93733.80
2022-08-24T04:03:24.908Z,93732.62
2022-08-24T04:08:33.331Z,93730.52
2022-08-24T04:13:40.980Z,93744.08
2022-08-24T04:18:48.212Z,93751.23
2022-08-24T04:23:55.526Z,93753.91
2022-08-24T04:29:02.682Z,93757.89
2022-08-24T04:34:11.985Z,93759.00
2022-08-24T04:39:18.775Z,93764.59
2022-08-24T04:44:25.496Z,93768.83
2022-08-24T04:49:32.992Z,93769.27
2022-08-24T04:54:39.833Z,93767.09
2022-08-24T04:59:46.655Z,93766.95
2022-08-24T05:04:54.470Z,93766.25
2022-08-24T05:10:01.161Z,93763.68
2022-08-24T05:15:09.205Z,93767.34
2022-08-24T05:20:16.108Z,93769.62
2022-08-24T05:25:23.537Z,93757.22
2022-08-24T05:30:30.260Z,93755.07
2022-08-24T05:35:43.904Z,93752.74
2022-08-24T05:40:51.570Z,93748.45
2022-08-24T05:45:58.320Z,93745.48
2022-08-24T05:51:06.575Z,93742.75
2022-08-24T05:56:16.528Z,93747.91
2022-08-24T06:01:26.359Z,93747.72
2022-08-24T06:06:33.619Z,93743.35
2022-08-24T06:11:42.014Z,93744.57
2022-08-24T06:16:49.970Z,93743.03
2022-08-24T06:21:57.524Z,93745.84
2022-08-24T06:27:22.249Z,93750.52
2022-08-24T06:32:28.973Z,93750.70
2022-08-24T06:37:35.785Z,93740.44
2022-08-24T06:42:42.549Z,93747.23
2022-08-24T06:47:49.360Z,93742.38
2022-08-24T06:52:56.128Z,93749.95
2022-08-24T06:58:03.993Z,93739.14
2022-08-24T07:03:10.718Z,93738.99
2022-08-24T07:08:18.026Z,93736.95
2022-08-24T07:13:25.655Z,93741.16
2022-08-24T07:18:32.406Z,93743.48
2022-08-24T07:23:42.334Z,93743.41
2022-08-24T07:28:48.497Z,93740.95
2022-08-24T07:33:55.270Z,93746.53
2022-08-24T07:39:01.994Z,93746.80
2022-08-24T07:44:11.141Z,93751.42
2022-08-24T07:49:36.190Z,93756.27
2022-08-24T07:54:28.641Z,93759.37
2022-08-24T07:59:37.319Z,93769.19
2022-08-24T08:04:44.250Z,93766.19
2022-08-24T08:09:51.213Z,93772.73
2022-08-24T08:14:58.025Z,93776.03
2022-08-24T08:20:06.957Z,93779.99
2022-08-24T08:25:14.553Z,93781.61
2022-08-24T08:30:23.350Z,93776.39
2022-08-24T08:35:30.191Z,93787.63
2022-08-24T08:41:02.289Z,93779.64
2022-08-24T08:46:43.552Z,93780.59
2022-08-24T08:52:17.080Z,93777.25
2022-08-24T08:57:38.054Z,93780.39
2022-08-24T09:03:18.065Z,93781.52
2022-08-24T09:08:52.231Z,93790.42
2022-08-24T09:14:38.960Z,93786.99
2022-08-24T09:20:05.047Z,93782.42
2022-08-24T09:25:28.064Z,93785.46
2022-08-24T09:30:55.689Z,93782.06
2022-08-24T09:36:16.936Z,93778.43
2022-08-24T09:41:52.348Z,93779.06
2022-08-24T09:47:18.701Z,93764.78
2022-08-24T09:52:44.781Z,93761.86
2022-08-24T09:58:13.795Z,93759.98
2022-08-24T10:03:52.106Z,93762.43
2022-08-24T10:09:34.422Z,93761.13
2022-08-24T10:15:11.299Z,93766.43
2022-08-24T10:20:31.647Z,93768.66
2022-08-24T10:26:16.166Z,93767.24
2022-08-24T10:31:43.822Z,93755.97
2022-08-24T10:37:04.014Z,93755.18
2022-08-24T10:42:40.243Z,93748.75
2022-08-24T10:48:16.759Z,93741.64
2022-08-24T10:53:28.179Z,93741.73
2022-08-24T10:59:04.177Z,93743.34
2022-08-24T11:04:14.596Z,93747.02
2022-08-24T11:09:21.379Z,93747.28
2022-08-24T11:14:32.319Z,93745.36
2022-08-24T11:19:39.083Z,93742.29
2022-08-24T11:24:48.743Z,93739.88
2022-08-24T11:29:59.633Z,93733.47
2022-08-24T11:35:11.069Z,93738.56
2022-08-24T11:40:21.375Z,93742.36
2022-08-24T11:45:41.759Z,93745.31
2022-08-24T11:51:01.858Z,93723.17
2022-08-24T11:56:44.097Z,93721.56
2022-08-24T12:02:08.580Z,93725.55
2022-08-24T12:07:40.405Z,93723.41
2022-08-24T12:12:56.961Z,93707.63
2022-08-24T12:18:38.080Z,93718.73
2022-08-24T12:23:51.932Z,93714.99
2022-08-24T12:29:11.363Z,93709.97
2022-08-24T12:34:22.674Z,93720.70
2022-08-24T12:39:34.092Z,93717.13
2022-08-24T12:44:51.089Z,93719.70
2022-08-24T12:50:11.366Z,93714.03
2022-08-24T12:55:31.322Z,93709.05
2022-08-24T13:00:45.965Z,93722.48
2022-08-24T13:05:58.082Z,93717.69
2022-08-24T13:11:31.078Z,93718.80
2022-08-24T13:17:03.392Z,93713.31
2022-08-24T13:22:17.478Z,93708.63
2022-08-24T13:27:40.534Z,93698.26
2022-08-24T13:32:49.473Z,93709.42
2022-08-24T13:38:42.178Z,93702.39
2022-08-24T13:44:02.322Z,93701.52
2022-08-24T13:49:24.963Z,93702.03
2022-08-24T13:54:45.340Z,93708.54
2022-08-24T14:00:33.526Z,93709.61
2022-08-24T14:05:59.827Z,93705.27
2022-08-24T14:11:28.720Z,93706.72
2022-08-24T14:17:00.380Z,93700.00
2022-08-24T14:22:15.163Z,93706.16
2022-08-24T14:27:50.279Z,93707.56
2022-08-24T14:33:13.079Z,93702.09
2022-08-24T14:38:31.310Z,93704.47
2022-08-24T14:43:57.412Z,93701.73
2022-08-24T14:49:17.214Z,93706.26
2022-08-24T14:54:52.512Z,93709.97
2022-08-24T15:00:22.110Z,93706.31
2022-08-24T15:05:39.124Z,93701.11
2022-08-24T15:10:58.744Z,93702.25
2022-08-24T15:16:41.818Z,93696.96
2022-08-24T15:22:06.257Z,93692.95
2022-08-24T15:27:35.521Z,93686.27
2022-08-24T15:32:53.407Z,93685.03
2022-08-24T15:38:02.155Z,93691.05
2022-08-24T15:43:09.168Z,93698.83
2022-08-24T15:48:21.044Z,93700.31
2022-08-24T15:53:42.625Z,93703.52
2022-08-24T15:58:50.890Z,93735.77
2022-08-24T16:04:10.649Z,93737.53
2022-08-24T16:09:30.503Z,93730.31
2022-08-24T16:14:47.638Z,93735.13
2022-08-24T16:19:59.142Z,93753.17
2022-08-24T16:25:38.810Z,93759.45
2022-08-24T16:31:06.928Z,93765.55
2022-08-24T16:36:14.616Z,93768.72
2022-08-24T16:41:24.464Z,93771.56
2022-08-24T16:46:31.237Z,93776.95
2022-08-24T16:51:38.004Z,93784.09
2022-08-24T16:56:46.557Z,93787.91
2022-08-24T17:01:53.357Z,93789.66
2022-08-24T17:07:00.357Z,93796.92
2022-08-24T17:12:09.175Z,93810.58
2022-08-24T17:17:21.814Z,93815.16
2022-08-24T17:22:30.089Z,93819.85
2022-08-24T17:27:36.904Z,93832.84
2022-08-24T17:32:43.798Z,93833.52
2022-08-24T17:37:52.557Z,93829.73
2022-08-24T17:42:59.674Z,93829.59
2022-08-24T17:48:06.733Z,93832.86
2022-08-24T17:53:13.511Z,93828.86
2022-08-24T17:58:20.724Z,93834.61
2022-08-24T18:03:27.602Z,93841.48
2022-08-24T18:08:34.705Z,93840.11
2022-08-24T18:13:41.781Z,93844.08
2022-08-24T18:18:50.437Z,93848.16
2022-08-24T18:23:58.600Z,93851.80
2022-08-24T18:29:18.713Z,93855.78
2022-08-24T18:34:29.564Z,93854.39
2022-08-24T18:39:36.341Z,93859.53
2022-08-24T18:44:43.189Z,93871.13
2022-08-24T18:49:49.926Z,93868.47
2022-08-24T18:54:57.065Z,93869.47
2022-08-24T19:00:04.614Z,93870.48
2022-08-24T19:05:21.101Z,93868.59
2022-08-24T19:10:32.156Z,93859.51
2022-08-24T19:15:40.632Z,93861.48
2022-08-24T19:20:51.731Z,93857.80
2022-08-24T19:25:59.126Z,93865.32
2022-08-24T19:31:09.612Z,93863.33
2022-08-24T19:36:17.458Z,93858.69
2022-08-24T19:41:36.934Z,93863.42
2022-08-24T19:46:34.975Z,93863.27
2022-08-24T19:51:41.996Z,93863.38
2022-08-24T19:56:52.189Z,93868.23
2022-08-24T20:01:59.405Z,93870.27
2022-08-24T20:07:06.442Z,93870.88
2022-08-24T20:12:13.373Z,93873.41
2022-08-24T20:17:21.037Z,93883.42
2022-08-24T20:22:29.594Z,93875.47
2022-08-24T20:27:37.156Z,93883.76
2022-08-24T20:32:45.008Z,93892.34
2022-08-24T20:37:54.038Z,93889.42
2022-08-24T20:43:01.167Z,93892.73
2022-08-24T20:48:09.612Z,93881.27
2022-08-24T20:53:16.792Z,93882.02
2022-08-24T20:58:24.687Z,93886.23
2022-08-24T21:03:31.792Z,93880.87
2022-08-24T21:08:39.093Z,93885.45
2022-08-24T21:13:46.220Z,93885.16
2022-08-24T21:18:53.011Z,93891.08
2022-08-24T21:24:00.187Z,93886.61
2022-08-24T21:29:10.241Z,93890.22
2022-08-24T21:34:34.806Z,93887.30
2022-08-24T21:39:41.966Z,93884.96
2022-08-24T21:44:49.122Z,93884.81
2022-08-24T21:49:56.126Z,93878.61
2022-08-24T21:55:03.486Z,93872.87
2022-08-24T22:00:15.227Z,93872.73
2022-08-24T22:05:22.441Z,93861.82
2022-08-24T22:10:29.916Z,93852.36
2022-08-24T22:15:37.164Z,93857.87
2022-08-24T22:20:44.177Z,93849.92
2022-08-24T22:25:55.801Z,93838.78
2022-08-24T22:31:03.087Z,93835.87
2022-08-24T22:36:12.522Z,93825.75
2022-08-24T22:41:21.321Z,93817.59
2022-08-24T22:46:29.693Z,93820.77
2022-08-24T22:51:37.110Z,93820.23
2022-08-24T22:56:47.669Z,93813.16
2022-08-24T23:01:57.373Z,93810.61
2022-08-24T23:07:06.384Z,93808.58
2022-08-24T23:12:17.909Z,93796.94
2022-08-24T23:17:25.506Z,93801.77
2022-08-24T23:22:36.616Z,93801.50
2022-08-24T23:27:48.032Z,93793.84
